Terminal Aerodrome Forecast
Issued by NWS Mt. Holly, NJ

Current Version | Previous Version | Text Only | Print | Product List | Glossary On
Versions: 1 2 3 4 5 6 7 8 9 10 11 12 13 14 15 16
640
FTUS41 KPHI 261721
TAFTTN
TAF
KTTN 261721Z 2618/2718 VRB03KT P6SM FEW050 BKN250
     FM262000 17007KT P6SM FEW050 BKN250
     FM270000 VRB03KT P6SM SCT250
     FM271400 22007KT P6SM BKN100=

USA.gov is the U.S. government's official web portal to all federal, state and local government web resources and services.